Time;durP1;ratioP1;P1;durP2;ratioP2;P2;SDS_P1;SDS_P2;PMS_P1;PMS_P2;Temp;Humidity;BMP_temperature;BMP_pressure;BME280_temperature;BME280_humidity;BME280_pressure;Samples;Min_cycle;Max_cycle;Signal;HPM_P1;HPM_P2
2021/09/01 00:00:42;;;;;;;16.40;3.78;;;17.00;99.90;;;;;;4915243;28;37178;-77
2021/09/01 00:03:09;;;;;;;10.05;3.35;;;16.90;99.90;;;;;;4897476;28;39436;-77
2021/09/01 00:05:35;;;;;;;12.65;3.45;;;16.90;99.90;;;;;;4916985;28;39589;-77
2021/09/01 00:08:01;;;;;;;14.70;3.92;;;16.90;99.90;;;;;;4916239;28;37911;-77
2021/09/01 00:10:27;;;;;;;9.95;3.22;;;16.90;99.90;;;;;;4920293;29;48883;-76
2021/09/01 00:12:53;;;;;;;11.07;3.75;;;16.90;99.90;;;;;;4916354;28;40661;-77
2021/09/01 00:15:20;;;;;;;10.35;3.70;;;16.90;99.90;;;;;;4915880;28;37482;-78
2021/09/01 00:17:46;;;;;;;11.10;3.72;;;16.90;99.90;;;;;;4915397;28;39052;-77
2021/09/01 00:20:12;;;;;;;13.95;3.42;;;16.90;99.90;;;;;;4894855;29;37830;-77
2021/09/01 00:22:38;;;;;;;7.90;2.95;;;16.90;99.90;;;;;;4915403;28;39919;-77
2021/09/01 00:25:07;;;;;;;10.38;3.78;;;17.00;99.90;;;;;;4917610;28;38021;-76
2021/09/01 00:27:33;;;;;;;9.70;3.55;;;17.00;99.90;;;;;;4918657;28;37820;-77
2021/09/01 00:29:59;;;;;;;10.65;3.60;;;17.00;99.90;;;;;;4916707;28;38216;-77
2021/09/01 00:32:25;;;;;;;10.65;3.30;;;17.00;99.90;;;;;;4915615;28;41307;-77
2021/09/01 00:34:51;;;;;;;13.82;3.92;;;16.90;99.90;;;;;;4914675;28;38511;-77
2021/09/01 00:37:17;;;;;;;11.30;3.67;;;16.90;99.90;;;;;;4916915;28;37910;-77
2021/09/01 00:39:44;;;;;;;11.90;4.18;;;16.90;99.90;;;;;;4917452;28;35378;-77
2021/09/01 00:42:10;;;;;;;12.45;3.58;;;16.90;99.90;;;;;;4907509;28;39816;-76
2021/09/01 00:44:37;;;;;;;12.10;3.53;;;16.90;99.90;;;;;;4913787;28;38318;-76
2021/09/01 00:47:05;;;;;;;8.10;3.25;;;16.90;99.90;;;;;;4912448;28;37930;-76
2021/09/01 00:49:32;;;;;;;9.85;3.45;;;16.90;99.90;;;;;;4911250;28;40529;-77
2021/09/01 00:51:59;;;;;;;10.77;3.65;;;16.90;99.90;;;;;;4896326;28;38768;-77
2021/09/01 00:54:29;;;;;;;9.52;3.00;;;16.90;99.90;;;;;;4911386;28;38539;-77
2021/09/01 00:57:00;;;;;;;11.77;3.40;;;16.90;99.90;;;;;;4912116;28;38552;-78
2021/09/01 00:59:34;;;;;;;9.43;3.17;;;16.90;99.90;;;;;;4913768;28;47192;-77
2021/09/01 01:02:02;;;;;;;13.82;3.83;;;16.90;99.90;;;;;;4914630;28;39936;-77
2021/09/01 01:04:32;;;;;;;10.82;3.25;;;16.90;99.90;;;;;;4896252;28;47261;-77
2021/09/01 01:07:05;;;;;;;8.52;3.53;;;16.90;99.90;;;;;;4915039;28;36457;-77
2021/09/01 01:09:33;;;;;;;8.75;2.97;;;16.90;99.90;;;;;;4896596;29;47400;-76
2021/09/01 01:12:04;;;;;;;7.28;2.95;;;16.90;99.90;;;;;;4900094;28;39730;-77
2021/09/01 01:14:38;;;;;;;11.45;4.05;;;16.90;99.90;;;;;;4900799;28;47564;-77
2021/09/01 01:17:06;;;;;;;11.38;3.20;;;16.90;99.90;;;;;;4917480;28;38387;-77
2021/09/01 01:19:37;;;;;;;11.27;3.80;;;16.90;99.90;;;;;;4917129;28;37279;-76
2021/09/01 01:22:03;;;;;;;10.60;3.28;;;16.80;99.90;;;;;;4917743;28;38892;-76
2021/09/01 01:24:51;;;;;;;15.98;4.05;;;16.80;99.90;;;;;;4919783;28;39320;-77
2021/09/01 01:27:38;;;;;;;9.20;3.22;;;16.80;99.90;;;;;;4919532;28;37278;-77
2021/09/01 01:30:15;;;;;;;10.20;3.60;;;16.80;99.90;;;;;;4913621;29;37877;-77
2021/09/01 01:32:44;;;;;;;9.55;3.78;;;16.80;99.90;;;;;;4908221;28;48522;-77
2021/09/01 01:35:10;;;;;;;17.38;3.55;;;16.80;99.90;;;;;;4910841;28;39780;-77
2021/09/01 01:37:39;;;;;;;10.27;3.65;;;16.80;99.90;;;;;;4916597;28;38094;-77
2021/09/01 01:40:06;;;;;;;10.80;3.78;;;16.80;99.90;;;;;;4914574;29;37988;-77
2021/09/01 01:42:39;;;;;;;12.15;3.70;;;16.70;99.90;;;;;;4915639;28;40638;-77
2021/09/01 01:45:05;;;;;;;10.75;3.97;;;16.80;99.90;;;;;;4917473;28;38580;-77
2021/09/01 01:47:31;;;;;;;9.38;3.75;;;16.80;99.90;;;;;;4900028;28;38641;-77
2021/09/01 01:49:57;;;;;;;6.15;3.10;;;16.80;99.90;;;;;;4917719;28;38084;-77
2021/09/01 01:52:23;;;;;;;11.07;3.85;;;16.80;99.90;;;;;;4913365;28;39780;-77
2021/09/01 01:54:50;;;;;;;10.35;3.47;;;16.80;99.90;;;;;;4917442;28;38613;-77
2021/09/01 01:57:16;;;;;;;11.20;3.97;;;16.80;99.90;;;;;;4912985;28;37650;-77
2021/09/01 01:59:42;;;;;;;11.15;4.13;;;16.80;99.90;;;;;;4917539;28;37674;-77
2021/09/01 02:02:08;;;;;;;11.40;3.58;;;16.80;99.90;;;;;;4914845;28;38991;-77
2021/09/01 02:04:34;;;;;;;8.60;3.67;;;16.80;99.90;;;;;;4906914;29;36992;-77
2021/09/01 02:07:00;;;;;;;9.02;3.67;;;16.70;99.90;;;;;;4918254;28;38779;-77
2021/09/01 02:09:26;;;;;;;10.70;3.55;;;16.70;99.90;;;;;;4901687;28;36752;-78
2021/09/01 02:11:52;;;;;;;14.50;3.85;;;16.80;99.90;;;;;;4915090;28;39284;-77
2021/09/01 02:14:18;;;;;;;9.60;3.80;;;16.80;99.90;;;;;;4900083;29;38718;-77
2021/09/01 02:16:44;;;;;;;13.90;4.32;;;16.80;99.90;;;;;;4916298;28;37519;-77
2021/09/01 02:19:11;;;;;;;10.45;3.67;;;16.80;99.90;;;;;;4919139;28;37170;-77
2021/09/01 02:21:38;;;;;;;8.85;4.20;;;16.70;99.90;;;;;;4914950;28;38574;-77
2021/09/01 02:24:07;;;;;;;11.15;3.70;;;16.80;99.90;;;;;;4916345;28;39409;-78
2021/09/01 02:26:33;;;;;;;10.25;3.38;;;16.70;99.90;;;;;;4917300;28;38014;-77
2021/09/01 02:29:00;;;;;;;8.98;3.55;;;16.70;99.90;;;;;;4916095;28;37576;-77
2021/09/01 02:31:26;;;;;;;14.18;3.90;;;16.70;99.90;;;;;;4919514;28;36532;-77
2021/09/01 02:33:52;;;;;;;7.82;3.55;;;16.70;99.90;;;;;;4913539;28;38041;-77
2021/09/01 02:36:19;;;;;;;7.80;3.10;;;16.70;99.90;;;;;;4909253;28;38463;-77
2021/09/01 02:38:45;;;;;;;11.88;3.58;;;16.70;99.90;;;;;;4918448;28;37529;-77
2021/09/01 02:41:12;;;;;;;7.80;3.33;;;16.70;99.90;;;;;;4919839;28;39618;-77
2021/09/01 02:43:39;;;;;;;8.60;3.83;;;16.70;99.90;;;;;;4919645;29;38604;-78
2021/09/01 02:46:05;;;;;;;8.85;3.33;;;16.70;99.90;;;;;;4917334;28;40193;-77
2021/09/01 02:48:31;;;;;;;10.25;3.30;;;16.60;99.90;;;;;;4920155;28;38712;-78
2021/09/01 02:50:57;;;;;;;6.97;3.00;;;16.70;99.90;;;;;;4917926;28;39565;-78
2021/09/01 02:53:23;;;;;;;10.80;3.80;;;16.70;99.90;;;;;;4919850;28;38155;-77
2021/09/01 02:55:49;;;;;;;10.20;3.25;;;16.70;99.90;;;;;;4916080;28;39514;-77
2021/09/01 02:58:16;;;;;;;7.72;3.50;;;16.70;99.90;;;;;;4919314;28;37886;-77
2021/09/01 03:00:42;;;;;;;9.32;3.10;;;16.70;99.90;;;;;;4917089;28;37816;-78
2021/09/01 03:03:09;;;;;;;7.63;3.17;;;16.70;99.90;;;;;;4917847;28;39155;-78
2021/09/01 03:05:35;;;;;;;8.35;3.10;;;16.70;99.90;;;;;;4917901;28;38348;-78
2021/09/01 03:08:01;;;;;;;7.68;3.17;;;16.70;99.90;;;;;;4919364;28;37010;-77
2021/09/01 03:10:27;;;;;;;8.23;3.15;;;16.70;99.90;;;;;;4914436;28;38349;-78
2021/09/01 03:12:53;;;;;;;8.95;3.22;;;16.70;99.90;;;;;;4915644;28;39337;-78
2021/09/01 03:15:19;;;;;;;9.65;3.35;;;16.70;99.90;;;;;;4898821;29;36788;-77
2021/09/01 03:17:46;;;;;;;11.90;3.55;;;16.70;99.90;;;;;;4917501;28;35303;-77
2021/09/01 03:20:12;;;;;;;7.65;3.08;;;16.70;99.90;;;;;;4919712;28;39758;-77
2021/09/01 03:22:38;;;;;;;6.05;3.05;;;16.70;99.90;;;;;;4918727;28;39293;-78
2021/09/01 03:25:05;;;;;;;7.68;3.35;;;16.70;99.90;;;;;;4917833;28;40311;-76
2021/09/01 03:27:31;;;;;;;14.73;3.63;;;16.70;99.90;;;;;;4916291;28;35974;-78
2021/09/01 03:29:57;;;;;;;12.27;3.88;;;16.70;99.90;;;;;;4914497;28;39426;-77
2021/09/01 03:32:23;;;;;;;12.18;3.65;;;16.60;99.90;;;;;;4898136;29;39436;-77
2021/09/01 03:34:49;;;;;;;10.98;3.90;;;16.60;99.90;;;;;;4913603;28;39045;-77
2021/09/01 03:37:15;;;;;;;9.20;3.78;;;16.70;99.90;;;;;;4898371;29;37544;-78
2021/09/01 03:39:41;;;;;;;7.32;3.65;;;16.70;99.90;;;;;;4915571;28;40207;-78
2021/09/01 03:42:07;;;;;;;7.00;3.10;;;16.70;99.90;;;;;;4916420;28;38801;-77
2021/09/01 03:44:34;;;;;;;7.55;3.42;;;16.70;99.90;;;;;;4914510;28;38739;-78
2021/09/01 03:47:00;;;;;;;7.40;3.58;;;16.60;99.90;;;;;;4910497;28;37636;-77
2021/09/01 03:49:26;;;;;;;9.35;3.33;;;16.60;99.90;;;;;;4917005;28;38814;-77
2021/09/01 03:51:52;;;;;;;10.90;3.58;;;16.60;99.90;;;;;;4913515;28;39132;-78
2021/09/01 03:54:18;;;;;;;7.97;3.72;;;16.50;99.90;;;;;;4916502;28;39205;-77
2021/09/01 03:56:44;;;;;;;14.38;3.88;;;16.50;99.90;;;;;;4913257;28;39568;-78
2021/09/01 03:59:10;;;;;;;11.35;3.95;;;16.50;99.90;;;;;;4917108;28;39321;-78
2021/09/01 04:01:36;;;;;;;9.70;3.75;;;16.50;99.90;;;;;;4912509;28;38340;-78
2021/09/01 04:04:04;;;;;;;10.32;3.30;;;16.50;99.90;;;;;;4916657;28;39362;-77
2021/09/01 04:06:30;;;;;;;7.75;3.45;;;16.50;99.90;;;;;;4917897;29;38598;-77
2021/09/01 04:08:57;;;;;;;8.85;2.90;;;16.50;99.90;;;;;;4919433;28;38984;-78
2021/09/01 04:11:23;;;;;;;9.57;3.53;;;16.50;99.90;;;;;;4918489;28;38051;-78
2021/09/01 04:13:50;;;;;;;10.27;3.05;;;16.50;99.90;;;;;;4912958;29;38331;-77
2021/09/01 04:16:16;;;;;;;8.90;3.38;;;16.50;99.90;;;;;;4917436;29;37351;-78
2021/09/01 04:18:42;;;;;;;7.28;3.33;;;16.50;99.90;;;;;;4903289;29;39482;-78
2021/09/01 04:21:09;;;;;;;10.00;3.90;;;16.40;99.90;;;;;;4915058;28;38261;-78
2021/09/01 04:23:35;;;;;;;5.72;3.10;;;16.40;99.90;;;;;;4921700;29;38539;-77
2021/09/01 04:26:01;;;;;;;13.38;3.67;;;16.40;99.90;;;;;;4918966;28;37203;-77
2021/09/01 04:28:28;;;;;;;10.50;4.05;;;16.40;99.90;;;;;;4917988;29;47472;-77
2021/09/01 04:30:54;;;;;;;9.90;3.65;;;16.40;99.90;;;;;;4917236;28;37471;-78
2021/09/01 04:33:20;;;;;;;10.00;3.78;;;16.40;99.90;;;;;;4919026;28;35435;-78
2021/09/01 04:35:46;;;;;;;10.77;3.80;;;16.40;99.90;;;;;;4922970;28;35668;-78
2021/09/01 04:38:12;;;;;;;8.25;3.50;;;16.40;99.90;;;;;;4904574;28;37480;-77
2021/09/01 04:40:38;;;;;;;10.70;3.45;;;16.40;99.90;;;;;;4916875;28;38064;-78
2021/09/01 04:43:05;;;;;;;9.68;3.40;;;16.40;99.90;;;;;;4898767;29;37521;-77
2021/09/01 04:45:31;;;;;;;9.52;3.92;;;16.40;99.90;;;;;;4898781;29;36268;-78
2021/09/01 04:47:57;;;;;;;10.85;3.00;;;16.40;99.90;;;;;;4898646;29;38513;-78
2021/09/01 04:50:23;;;;;;;7.88;3.42;;;16.30;99.90;;;;;;4913116;28;37232;-78
2021/09/01 04:52:49;;;;;;;9.50;3.55;;;16.40;99.90;;;;;;4918484;29;37913;-78
2021/09/01 04:55:17;;;;;;;9.63;3.63;;;16.40;99.90;;;;;;4916947;28;37495;-78
2021/09/01 04:57:44;;;;;;;10.50;3.58;;;16.40;99.90;;;;;;4918303;29;38678;-77
2021/09/01 05:00:11;;;;;;;10.70;3.80;;;16.40;99.90;;;;;;4922644;28;38922;-77
2021/09/01 05:02:38;;;;;;;7.57;3.88;;;16.40;99.90;;;;;;4926548;28;37732;-77
2021/09/01 05:05:05;;;;;;;9.35;4.00;;;16.30;99.90;;;;;;4898380;29;37487;-77
2021/09/01 05:07:31;;;;;;;7.05;3.72;;;16.30;99.90;;;;;;4914677;29;38461;-77
2021/09/01 05:09:57;;;;;;;10.27;3.80;;;16.30;99.90;;;;;;4917104;28;38693;-76
2021/09/01 05:12:27;;;;;;;8.55;4.03;;;16.30;99.90;;;;;;4920521;28;37907;-77
2021/09/01 05:14:54;;;;;;;9.38;3.90;;;16.30;99.90;;;;;;4924007;28;36794;-77
2021/09/01 05:17:21;;;;;;;9.82;4.07;;;16.30;99.90;;;;;;4925443;29;38565;-77
2021/09/01 05:19:47;;;;;;;11.45;3.65;;;16.30;99.90;;;;;;4923841;29;38906;-76
2021/09/01 05:22:19;;;;;;;9.43;4.60;;;16.30;99.90;;;;;;4922680;29;38213;-78
2021/09/01 05:24:57;;;;;;;8.17;3.53;;;16.30;99.90;;;;;;4922479;28;38371;-77
2021/09/01 05:27:25;;;;;;;6.60;3.63;;;16.30;99.90;;;;;;4920751;28;38659;-78
2021/09/01 05:29:51;;;;;;;7.80;3.72;;;16.30;99.90;;;;;;4924414;28;39960;-78
2021/09/01 05:32:22;;;;;;;8.63;3.63;;;16.30;99.90;;;;;;4905063;29;37182;-78
2021/09/01 05:34:51;;;;;;;5.60;2.63;;;16.30;99.90;;;;;;4903762;29;36761;-78
2021/09/01 05:37:18;;;;;;;11.30;3.50;;;16.40;99.90;;;;;;4923754;28;39581;-78
2021/09/01 05:39:46;;;;;;;9.45;3.58;;;16.30;99.90;;;;;;4925348;29;39194;-78
2021/09/01 05:42:14;;;;;;;10.05;3.83;;;16.30;99.90;;;;;;4906729;29;36880;-78
2021/09/01 05:44:41;;;;;;;7.10;3.38;;;16.30;99.90;;;;;;4905667;29;36430;-78
2021/09/01 05:47:12;;;;;;;8.18;3.75;;;16.30;99.90;;;;;;4918576;28;38877;-78
2021/09/01 05:49:41;;;;;;;8.20;3.22;;;16.30;99.90;;;;;;4921418;28;39100;-78
2021/09/01 05:52:09;;;;;;;7.47;3.67;;;16.30;99.90;;;;;;4892598;29;39451;-78
2021/09/01 05:54:38;;;;;;;12.63;4.20;;;16.40;99.90;;;;;;4901378;29;37944;-78
2021/09/01 05:57:08;;;;;;;10.98;3.78;;;16.40;99.90;;;;;;4925401;28;38608;-78
2021/09/01 06:00:05;;;;;;;8.65;3.92;;;16.40;99.90;;;;;;4913687;29;37541;-78
2021/09/01 06:02:42;;;;;;;7.70;3.20;;;16.40;99.90;;;;;;4929715;28;40909;-78
2021/09/01 06:05:10;;;;;;;9.70;2.78;;;16.40;99.90;;;;;;4924732;28;37720;-78
2021/09/01 06:07:55;;;;;;;6.25;3.17;;;16.40;99.90;;;;;;4930599;28;38755;-78
2021/09/01 06:10:25;;;;;;;8.50;3.13;;;16.40;99.90;;;;;;4940449;28;37391;-79
2021/09/01 06:12:54;;;;;;;7.45;2.53;;;16.40;99.90;;;;;;4930126;29;38264;-78
2021/09/01 06:15:21;;;;;;;6.57;2.63;;;16.40;99.90;;;;;;4931078;28;38276;-78
2021/09/01 06:17:47;;;;;;;7.22;2.80;;;16.50;99.90;;;;;;4932296;28;37741;-78
2021/09/01 06:20:13;;;;;;;7.70;3.00;;;16.50;99.90;;;;;;4934470;28;38448;-77
2021/09/01 06:22:40;;;;;;;7.85;2.63;;;16.50;99.90;;;;;;4944530;28;37966;-78
2021/09/01 06:25:06;;;;;;;6.47;2.35;;;16.50;99.90;;;;;;4937159;28;36654;-78
2021/09/01 06:27:33;;;;;;;7.30;3.15;;;16.60;99.90;;;;;;4915614;28;38235;-78
2021/09/01 06:29:59;;;;;;;8.23;2.97;;;16.70;99.90;;;;;;4913859;29;38253;-78
2021/09/01 06:32:25;;;;;;;6.45;2.70;;;16.80;99.90;;;;;;4911804;29;38201;-78
2021/09/01 06:34:51;;;;;;;6.93;2.75;;;16.80;99.90;;;;;;4919765;29;37346;-78
2021/09/01 06:37:17;;;;;;;8.38;3.33;;;16.80;99.90;;;;;;4927793;28;39127;-78
2021/09/01 06:39:44;;;;;;;5.90;3.20;;;16.90;99.90;;;;;;4932471;29;38627;-79
2021/09/01 06:42:11;;;;;;;5.90;2.88;;;16.90;99.90;;;;;;4912573;29;38520;-78
2021/09/01 06:44:37;;;;;;;8.35;3.17;;;16.90;99.90;;;;;;4932534;29;36948;-78
2021/09/01 06:47:04;;;;;;;7.13;3.30;;;16.90;99.90;;;;;;4925447;28;40735;-78
2021/09/01 06:49:31;;;;;;;7.22;2.80;;;17.00;99.90;;;;;;4923321;29;38656;-78
2021/09/01 06:51:57;;;;;;;7.97;3.30;;;17.20;99.90;;;;;;4928382;29;38759;-78
2021/09/01 06:54:23;;;;;;;8.35;2.78;;;17.30;99.90;;;;;;4931192;28;37202;-78
2021/09/01 06:56:49;;;;;;;8.85;3.35;;;17.40;99.90;;;;;;4912182;29;39424;-79
2021/09/01 06:59:15;;;;;;;6.03;3.05;;;17.40;99.90;;;;;;4919566;29;39413;-78
2021/09/01 07:01:41;;;;;;;7.85;3.42;;;17.50;99.90;;;;;;4906806;29;38774;-78
2021/09/01 07:04:07;;;;;;;5.65;2.85;;;17.50;99.90;;;;;;4928876;28;37545;-78
2021/09/01 07:06:33;;;;;;;5.93;2.60;;;17.60;99.90;;;;;;4920845;28;38884;-78
2021/09/01 07:09:00;;;;;;;10.98;3.72;;;17.60;99.90;;;;;;4927330;28;39384;-79
2021/09/01 07:11:26;;;;;;;7.38;3.17;;;17.60;99.90;;;;;;4929556;28;37276;-78
2021/09/01 07:13:52;;;;;;;5.05;2.50;;;17.70;99.90;;;;;;4944844;28;37358;-79
2021/09/01 07:16:18;;;;;;;6.45;2.90;;;17.70;99.90;;;;;;4905800;29;40195;-78
2021/09/01 07:18:44;;;;;;;7.32;2.60;;;17.70;99.90;;;;;;4929205;29;38744;-78
2021/09/01 07:21:12;;;;;;;6.88;2.92;;;17.70;99.90;;;;;;4927854;28;38533;-78
2021/09/01 07:23:39;;;;;;;6.07;2.63;;;17.70;99.90;;;;;;4911258;29;38115;-78
2021/09/01 07:26:05;;;;;;;7.40;3.08;;;17.60;99.90;;;;;;4927118;29;38615;-78
2021/09/01 07:28:31;;;;;;;7.63;2.95;;;17.60;99.90;;;;;;4930438;28;38220;-78
2021/09/01 07:30:57;;;;;;;6.75;2.60;;;17.60;99.90;;;;;;4912568;29;39050;-78
2021/09/01 07:33:24;;;;;;;7.88;2.63;;;17.60;99.90;;;;;;4913346;28;38145;-78
2021/09/01 07:35:50;;;;;;;9.32;2.55;;;17.60;99.90;;;;;;4925523;29;38029;-78
2021/09/01 07:38:16;;;;;;;6.70;2.80;;;17.60;99.90;;;;;;4928050;29;38486;-78
2021/09/01 07:40:42;;;;;;;9.15;3.15;;;17.60;99.90;;;;;;4930246;28;38747;-78
2021/09/01 07:43:08;;;;;;;11.48;3.58;;;17.60;99.90;;;;;;4905997;29;37824;-78
2021/09/01 07:45:34;;;;;;;8.82;3.53;;;17.50;99.90;;;;;;4927237;28;39811;-78
2021/09/01 07:48:00;;;;;;;8.93;3.65;;;17.60;99.90;;;;;;4924583;28;38875;-78
2021/09/01 07:50:31;;;;;;;9.27;3.15;;;17.50;99.90;;;;;;4930572;28;39037;-78
2021/09/01 07:52:58;;;;;;;9.55;3.58;;;17.40;99.90;;;;;;4925959;29;38594;-79
2021/09/01 07:55:24;;;;;;;10.27;3.47;;;17.50;99.90;;;;;;4928033;28;40600;-78
2021/09/01 07:57:51;;;;;;;6.43;2.95;;;17.40;99.90;;;;;;4924369;29;38679;-78
2021/09/01 08:00:17;;;;;;;7.97;3.42;;;17.50;99.90;;;;;;4926370;29;37785;-77
2021/09/01 08:02:44;;;;;;;5.80;2.97;;;17.50;99.90;;;;;;4928327;28;38014;-77
2021/09/01 08:05:11;;;;;;;6.55;2.85;;;17.50;99.90;;;;;;4925807;28;39097;-77
2021/09/01 08:07:37;;;;;;;8.20;2.80;;;17.60;99.90;;;;;;4927519;29;38021;-77
2021/09/01 08:10:04;;;;;;;7.97;3.05;;;17.70;99.90;;;;;;4901960;29;36971;-77
2021/09/01 08:12:30;;;;;;;12.05;3.20;;;17.80;99.90;;;;;;4910221;29;47627;-78
2021/09/01 08:14:57;;;;;;;7.93;3.20;;;17.90;99.90;;;;;;4920094;29;39027;-77
2021/09/01 08:17:23;;;;;;;7.72;2.80;;;17.90;99.90;;;;;;4910388;29;39235;-77
2021/09/01 08:19:49;;;;;;;7.65;2.70;;;18.00;99.90;;;;;;4930084;28;38778;-77
2021/09/01 08:22:15;;;;;;;6.95;2.85;;;18.00;99.90;;;;;;4908426;29;36294;-77
2021/09/01 08:24:43;;;;;;;9.73;2.75;;;18.00;99.90;;;;;;4911099;29;39075;-77
2021/09/01 08:27:11;;;;;;;6.25;2.55;;;17.90;99.90;;;;;;4898978;29;37132;-78
2021/09/01 08:29:38;;;;;;;7.40;3.03;;;17.90;99.90;;;;;;4892733;29;36904;-77
2021/09/01 08:32:04;;;;;;;7.57;2.47;;;17.90;99.90;;;;;;4920156;28;37982;-78
2021/09/01 08:34:31;;;;;;;6.50;2.60;;;18.00;99.90;;;;;;4893665;29;39221;-77
2021/09/01 08:36:59;;;;;;;11.05;3.35;;;18.10;99.90;;;;;;4918500;28;38486;-77
2021/09/01 08:39:25;;;;;;;5.85;2.60;;;18.20;99.90;;;;;;4923191;28;37148;-77
2021/09/01 08:41:52;;;;;;;6.43;2.50;;;18.30;99.90;;;;;;4926791;28;38488;-77
2021/09/01 08:44:18;;;;;;;7.80;2.72;;;18.40;99.90;;;;;;4926049;28;40244;-78
2021/09/01 08:46:48;;;;;;;10.93;2.90;;;18.40;99.90;;;;;;4928002;29;39752;-77
2021/09/01 08:49:14;;;;;;;9.13;2.63;;;18.40;99.90;;;;;;4907637;29;38077;-77
2021/09/01 08:51:40;;;;;;;7.18;2.42;;;18.50;99.90;;;;;;4907394;29;38102;-77
2021/09/01 08:54:07;;;;;;;4.75;2.53;;;18.50;99.90;;;;;;4914893;29;38259;-78
2021/09/01 08:56:33;;;;;;;8.30;2.65;;;18.60;99.90;;;;;;4913668;29;38271;-75
2021/09/01 08:58:59;;;;;;;5.85;2.28;;;18.80;99.90;;;;;;4928949;28;36832;-78
2021/09/01 09:01:46;;;;;;;5.38;2.42;;;18.80;99.90;;;;;;4926956;28;36931;-77
2021/09/01 09:04:21;;;;;;;8.70;2.45;;;18.80;99.90;;;;;;4927223;28;39655;-77
2021/09/01 09:06:52;;;;;;;8.02;2.60;;;18.90;99.90;;;;;;4928553;29;39147;-78
2021/09/01 09:09:27;;;;;;;6.30;2.22;;;18.90;99.90;;;;;;4926989;29;38036;-77
2021/09/01 09:11:54;;;;;;;7.10;2.47;;;19.10;99.90;;;;;;4927783;28;38150;-77
2021/09/01 09:14:23;;;;;;;11.57;2.45;;;19.10;99.90;;;;;;4922765;28;40160;-76
2021/09/01 09:17:05;;;;;;;8.27;3.13;;;18.90;99.90;;;;;;4907949;29;37268;-75
2021/09/01 09:20:02;;;;;;;8.50;2.60;;;18.80;99.90;;;;;;4927108;29;49171;-75
2021/09/01 09:22:31;;;;;;;8.18;2.65;;;18.80;99.90;;;;;;4927576;28;37402;-76
2021/09/01 09:25:03;;;;;;;6.10;2.45;;;18.50;99.90;;;;;;4911814;29;38303;-75
2021/09/01 09:27:41;;;;;;;;;;;18.50;99.90;;;;;;4916149;29;46026;-75
2021/09/01 09:30:20;;;;;;;9.82;3.42;;;18.30;99.90;;;;;;4916949;28;37069;-74
2021/09/01 09:33:02;;;;;;;5.88;2.55;;;18.30;99.90;;;;;;4903789;29;35761;-76
2021/09/01 09:36:02;;;;;;;8.18;2.70;;;18.40;99.90;;;;;;4915885;29;48743;-79
2021/09/01 09:38:46;;;;;;;8.60;2.65;;;18.20;99.90;;;;;;4912111;29;48651;-76
2021/09/01 09:41:18;;;;;;;6.90;2.30;;;18.00;99.90;;;;;;4929975;28;38799;-79
2021/09/01 09:43:44;;;;;;;5.75;2.53;;;17.90;99.90;;;;;;4917968;28;37133;-79
2021/09/01 09:46:11;;;;;;;7.43;2.08;;;18.00;99.90;;;;;;4925922;28;38014;-79
2021/09/01 09:48:40;;;;;;;7.30;2.20;;;17.90;99.90;;;;;;4913626;29;37898;-79
2021/09/01 09:51:12;;;;;;;10.13;2.38;;;18.00;99.90;;;;;;4930325;29;37919;-80
2021/09/01 09:53:44;;;;;;;6.35;2.17;;;18.20;99.90;;;;;;4925838;29;37977;-76
2021/09/01 09:56:10;;;;;;;5.35;1.90;;;18.40;99.90;;;;;;4927758;28;38334;-77
2021/09/01 09:58:48;;;;;;;5.47;2.15;;;18.60;99.90;;;;;;4898498;29;39291;-77
2021/09/01 10:01:16;;;;;;;4.40;2.00;;;18.80;99.90;;;;;;4927006;28;37928;-77
2021/09/01 10:03:43;;;;;;;3.47;1.55;;;18.90;99.90;;;;;;4929246;28;37187;-78
2021/09/01 10:06:16;;;;;;;1.83;0.93;;;19.10;99.90;;;;;;4929386;28;38659;-77
2021/09/01 10:08:44;;;;;;;3.47;1.30;;;19.30;99.90;;;;;;4930664;29;38543;-78
2021/09/01 10:11:12;;;;;;;4.65;1.35;;;19.50;99.90;;;;;;4925385;29;39598;-78
2021/09/01 10:13:41;;;;;;;3.97;1.42;;;19.80;99.90;;;;;;4912749;29;38125;-77
2021/09/01 10:16:10;;;;;;;3.38;1.13;;;20.10;99.90;;;;;;4929386;29;39159;-77
2021/09/01 10:18:39;;;;;;;4.93;1.50;;;20.30;99.90;;;;;;4933689;28;40206;-78
2021/09/01 10:21:06;;;;;;;4.57;1.50;;;20.50;99.90;;;;;;4930418;29;38250;-78
2021/09/01 10:23:51;;;;;;;4.88;1.60;;;20.50;99.90;;;;;;4915554;29;37359;-77
2021/09/01 10:26:32;;;;;;;4.60;1.38;;;20.30;99.90;;;;;;4913405;28;39762;-78
2021/09/01 10:29:02;;;;;;;3.00;1.65;;;20.40;99.90;;;;;;4931890;29;39296;-80
2021/09/01 10:31:33;;;;;;;3.72;1.52;;;20.30;99.90;;;;;;4911388;29;47215;-77
2021/09/01 10:34:18;;;;;;;2.38;1.70;;;20.30;99.90;;;;;;4925097;29;37675;-78
2021/09/01 10:36:55;;;;;;;3.55;1.63;;;20.30;99.90;;;;;;4926923;28;48646;-78
2021/09/01 10:39:30;;;;;;;5.75;1.85;;;20.40;99.90;;;;;;4929670;29;38577;-78
2021/09/01 10:41:56;;;;;;;3.13;1.50;;;20.60;99.90;;;;;;4927548;28;38622;-78
2021/09/01 10:44:46;;;;;;;5.03;1.60;;;20.90;99.90;;;;;;4927081;28;36942;-78
2021/09/01 10:47:12;;;;;;;3.83;1.40;;;21.20;99.90;;;;;;4907564;29;39526;-78
2021/09/01 10:49:54;;;;;;;3.63;1.45;;;21.20;99.90;;;;;;4910319;29;41618;-78
2021/09/01 10:52:20;;;;;;;3.42;1.52;;;21.10;99.90;;;;;;4929824;28;38834;-78
2021/09/01 10:54:47;;;;;;;3.92;1.45;;;21.30;99.90;;;;;;4930643;29;37208;-78
2021/09/01 10:57:28;;;;;;;3.00;1.50;;;21.40;99.90;;;;;;4918733;28;38623;-78
2021/09/01 10:59:58;;;;;;;3.47;1.42;;;21.40;99.90;;;;;;4920622;28;38462;-78
2021/09/01 11:02:24;;;;;;;5.35;1.67;;;21.50;99.90;;;;;;4927328;29;38057;-78
2021/09/01 11:04:51;;;;;;;3.70;1.52;;;21.50;99.90;;;;;;4929996;29;37956;-78
2021/09/01 11:07:25;;;;;;;3.55;1.13;;;21.30;99.90;;;;;;4919970;28;40349;-78
2021/09/01 11:10:10;;;;;;;2.47;1.25;;;21.10;99.90;;;;;;4929290;28;39761;-78
2021/09/01 11:12:41;;;;;;;6.05;1.40;;;21.10;99.90;;;;;;4910487;29;48385;-78
2021/09/01 11:15:09;;;;;;;3.22;1.25;;;21.10;99.90;;;;;;4924941;29;37835;-78
2021/09/01 11:17:35;;;;;;;3.42;1.25;;;21.00;99.90;;;;;;4924457;28;39319;-78
2021/09/01 11:20:02;;;;;;;3.45;1.02;;;21.20;99.90;;;;;;4915705;29;39334;-78
2021/09/01 11:22:31;;;;;;;2.17;0.98;;;21.10;99.90;;;;;;4929477;28;37515;-77
2021/09/01 11:25:01;;;;;;;2.25;1.20;;;20.90;99.90;;;;;;4928194;29;39262;-78
2021/09/01 11:27:28;;;;;;;6.13;1.65;;;20.80;99.90;;;;;;4920069;28;40481;-78
2021/09/01 11:30:08;;;;;;;3.47;1.15;;;20.80;99.90;;;;;;4922093;28;38211;-78
2021/09/01 11:32:35;;;;;;;5.00;1.35;;;21.00;99.90;;;;;;4900566;29;47437;-77
2021/09/01 11:35:13;;;;;;;1.85;1.10;;;21.10;99.90;;;;;;4931355;29;36374;-77
2021/09/01 11:37:39;;;;;;;2.80;1.23;;;21.20;99.90;;;;;;4900288;29;47302;-77
2021/09/01 11:40:06;;;;;;;4.20;1.35;;;21.00;99.90;;;;;;4913825;29;39008;-77
2021/09/01 11:42:36;;;;;;;4.93;1.10;;;21.00;99.90;;;;;;4925139;29;37369;-77
2021/09/01 11:45:03;;;;;;;4.63;1.50;;;20.80;99.90;;;;;;4903371;29;36154;-77
2021/09/01 11:47:29;;;;;;;2.28;1.15;;;20.60;99.90;;;;;;4926696;29;39109;-77
2021/09/01 11:49:56;;;;;;;5.88;1.65;;;20.60;99.90;;;;;;4910452;29;36218;-77
2021/09/01 11:52:30;;;;;;;3.83;1.05;;;20.40;99.90;;;;;;4920247;29;37834;-77
2021/09/01 11:54:56;;;;;;;3.65;1.33;;;20.40;99.90;;;;;;4930164;29;38265;-77
2021/09/01 11:57:27;;;;;;;3.25;1.33;;;20.50;99.90;;;;;;4928057;29;39503;-77
2021/09/01 11:59:53;;;;;;;5.63;1.38;;;20.50;99.90;;;;;;4913037;28;37586;-77
2021/09/01 12:02:28;;;;;;;2.10;1.30;;;20.60;99.90;;;;;;4922410;28;38033;-77
2021/09/01 12:04:55;;;;;;;2.13;1.10;;;20.70;99.90;;;;;;4925484;29;36150;-77
2021/09/01 12:07:32;;;;;;;1.85;1.13;;;20.80;99.90;;;;;;4927499;29;39759;-78
2021/09/01 12:10:01;;;;;;;3.80;1.13;;;21.10;99.90;;;;;;4929751;29;38117;-77
2021/09/01 12:12:35;;;;;;;2.30;1.08;;;21.10;99.90;;;;;;4926173;28;37159;-77
2021/09/01 12:15:10;;;;;;;2.95;1.48;;;21.30;99.90;;;;;;4914987;29;37333;-77
2021/09/01 12:17:37;;;;;;;2.97;1.20;;;21.30;99.90;;;;;;4924136;28;50030;-77
2021/09/01 12:20:04;;;;;;;2.95;1.40;;;21.30;99.90;;;;;;4922154;29;37194;-77
2021/09/01 12:22:30;;;;;;;2.72;1.17;;;21.20;99.90;;;;;;4927591;29;46999;-78
2021/09/01 12:25:08;;;;;;;3.38;1.17;;;21.20;99.90;;;;;;4918623;29;36347;-78
2021/09/01 12:27:36;;;;;;;3.03;1.17;;;21.20;99.90;;;;;;4920182;29;47548;-78
2021/09/01 12:30:06;;;;;;;2.13;0.93;;;21.00;99.90;;;;;;4910907;29;38320;-77
2021/09/01 12:32:32;;;;;;;1.92;1.00;;;20.80;99.90;;;;;;4925634;29;46418;-78
2021/09/01 12:35:02;;;;;;;2.97;1.20;;;20.70;99.90;;;;;;4932999;28;37027;-78
2021/09/01 12:37:34;;;;;;;3.00;1.48;;;20.50;99.90;;;;;;4897204;29;47475;-78
2021/09/01 12:40:09;;;;;;;3.08;1.70;;;20.40;99.90;;;;;;4908735;29;37698;-78
2021/09/01 12:42:45;;;;;;;2.60;1.38;;;20.10;99.90;;;;;;4920428;28;47469;-77
2021/09/01 12:45:18;;;;;;;2.55;1.48;;;20.10;99.90;;;;;;4910845;28;37356;-78
2021/09/01 12:47:57;;;;;;;4.20;1.55;;;20.10;99.90;;;;;;4921802;29;38903;-78
2021/09/01 12:50:37;;;;;;;3.45;1.38;;;20.20;99.90;;;;;;4917164;28;38777;-78
2021/09/01 12:53:05;;;;;;;2.60;1.25;;;20.30;99.90;;;;;;4927704;29;38988;-78